Portada
METAR-TAF:

METAR-TAF

Aeroports :

Ipiales, Colòmbia

latitud: 00-49N, longitud: 077-38W, altitud: 2961 m

Observació

L'informe es va fer fa 44 minuts, a les 22:00 UTC
Vent 7 kt del Est/Sud-Est
Temperatura 13°C
Humitat 67%
Pressió 1028 hPa
Visibilitat 10 km o més
Escasses núvols a una alçada de 1800 ft

METAR: SKIP 152200Z 12007KT 9999 FEW018 13/07 A3036

Hora: 17:44 (22:44 UTC)


TAF: manca

Observacions i pronòstics meteorològics de més de 4000 aeroports (METAR i TAF).

Les estacions disponibles són els punts grocs i vermells al mapa.

Posi el ratolí al punt desitjat per veure el nom de l'estació.

Feu clic per veure les observacions i els pronòstics meteorològics.

Per canviar el mapa: feu clic els botons verds amb una creu de color negre per apropar; al botó verd amb un guió per allunyar la imatge; o en les fletxes verdes per a mapes adjacents.


METAR-TAF: